sensor_id;sensor_type;location;lat;lon;timestamp;P1;durP1;ratioP1;P2;durP2;ratioP2
21630;SDS011;10977;46.802;11.952;2022-11-12T00:02:14;8.45;;;6.00;;
21630;SDS011;10977;46.802;11.952;2022-11-12T00:04:39;9.90;;;6.47;;
21630;SDS011;10977;46.802;11.952;2022-11-12T00:07:04;9.48;;;5.82;;
21630;SDS011;10977;46.802;11.952;2022-11-12T00:09:30;8.38;;;6.10;;
21630;SDS011;10977;46.802;11.952;2022-11-12T00:11:55;11.35;;;6.57;;
21630;SDS011;10977;46.802;11.952;2022-11-12T00:14:20;10.63;;;6.70;;
21630;SDS011;10977;46.802;11.952;2022-11-12T00:16:46;9.00;;;6.10;;
21630;SDS011;10977;46.802;11.952;2022-11-12T00:19:11;9.27;;;6.90;;
21630;SDS011;10977;46.802;11.952;2022-11-12T00:21:36;10.75;;;6.43;;
21630;SDS011;10977;46.802;11.952;2022-11-12T00:24:02;9.77;;;6.53;;
21630;SDS011;10977;46.802;11.952;2022-11-12T00:26:27;8.45;;;6.38;;
21630;SDS011;10977;46.802;11.952;2022-11-12T00:28:53;10.40;;;5.63;;
21630;SDS011;10977;46.802;11.952;2022-11-12T00:31:18;9.13;;;5.85;;
21630;SDS011;10977;46.802;11.952;2022-11-12T00:33:43;10.38;;;6.38;;
21630;SDS011;10977;46.802;11.952;2022-11-12T00:36:09;10.07;;;6.18;;
21630;SDS011;10977;46.802;11.952;2022-11-12T00:38:35;7.90;;;5.43;;
21630;SDS011;10977;46.802;11.952;2022-11-12T00:41:01;8.77;;;5.93;;
21630;SDS011;10977;46.802;11.952;2022-11-12T00:43:26;9.93;;;5.82;;
21630;SDS011;10977;46.802;11.952;2022-11-12T00:45:52;9.43;;;5.95;;
21630;SDS011;10977;46.802;11.952;2022-11-12T00:48:17;9.63;;;5.97;;
21630;SDS011;10977;46.802;11.952;2022-11-12T00:50:42;34.15;;;8.23;;
21630;SDS011;10977;46.802;11.952;2022-11-12T00:53:08;86.32;;;9.15;;
21630;SDS011;10977;46.802;11.952;2022-11-12T00:55:33;42.92;;;8.13;;
21630;SDS011;10977;46.802;11.952;2022-11-12T00:57:58;9.60;;;6.75;;
21630;SDS011;10977;46.802;11.952;2022-11-12T01:00:24;17.15;;;7.32;;
21630;SDS011;10977;46.802;11.952;2022-11-12T01:02:50;16.95;;;7.28;;
21630;SDS011;10977;46.802;11.952;2022-11-12T01:05:15;254.70;;;12.65;;
21630;SDS011;10977;46.802;11.952;2022-11-12T01:07:41;63.15;;;7.97;;
21630;SDS011;10977;46.802;11.952;2022-11-12T01:10:08;33.85;;;6.85;;
21630;SDS011;10977;46.802;11.952;2022-11-12T01:12:34;10.23;;;6.90;;
21630;SDS011;10977;46.802;11.952;2022-11-12T01:15:00;12.68;;;6.63;;
21630;SDS011;10977;46.802;11.952;2022-11-12T01:17:26;75.82;;;7.63;;
21630;SDS011;10977;46.802;11.952;2022-11-12T01:19:51;37.13;;;7.68;;
21630;SDS011;10977;46.802;11.952;2022-11-12T01:22:17;12.98;;;7.65;;
21630;SDS011;10977;46.802;11.952;2022-11-12T01:24:42;17.60;;;8.63;;
21630;SDS011;10977;46.802;11.952;2022-11-12T01:27:07;12.07;;;8.70;;
21630;SDS011;10977;46.802;11.952;2022-11-12T01:29:33;11.05;;;7.82;;
21630;SDS011;10977;46.802;11.952;2022-11-12T01:31:58;70.65;;;7.97;;
21630;SDS011;10977;46.802;11.952;2022-11-12T01:34:24;87.70;;;10.05;;
21630;SDS011;10977;46.802;11.952;2022-11-12T01:36:50;28.58;;;8.45;;
21630;SDS011;10977;46.802;11.952;2022-11-12T01:39:15;12.23;;;7.68;;
21630;SDS011;10977;46.802;11.952;2022-11-12T01:41:40;24.33;;;8.13;;
21630;SDS011;10977;46.802;11.952;2022-11-12T01:46:50;12.68;;;8.13;;
21630;SDS011;10977;46.802;11.952;2022-11-12T01:49:20;190.50;;;10.95;;
21630;SDS011;10977;46.802;11.952;2022-11-12T01:54:41;20.20;;;8.18;;
21630;SDS011;10977;46.802;11.952;2022-11-12T01:57:08;29.08;;;8.60;;
21630;SDS011;10977;46.802;11.952;2022-11-12T01:59:37;12.13;;;8.38;;
21630;SDS011;10977;46.802;11.952;2022-11-12T02:02:07;20.13;;;7.35;;
21630;SDS011;10977;46.802;11.952;2022-11-12T02:04:32;41.33;;;6.95;;
21630;SDS011;10977;46.802;11.952;2022-11-12T02:06:59;14.52;;;7.55;;
21630;SDS011;10977;46.802;11.952;2022-11-12T02:09:26;111.85;;;8.60;;
21630;SDS011;10977;46.802;11.952;2022-11-12T02:11:52;9.77;;;6.25;;
21630;SDS011;10977;46.802;11.952;2022-11-12T02:14:18;15.60;;;6.63;;
21630;SDS011;10977;46.802;11.952;2022-11-12T02:16:44;11.02;;;6.50;;
21630;SDS011;10977;46.802;11.952;2022-11-12T02:19:11;43.20;;;7.18;;
21630;SDS011;10977;46.802;11.952;2022-11-12T02:21:38;45.70;;;7.38;;
21630;SDS011;10977;46.802;11.952;2022-11-12T02:24:05;18.30;;;6.32;;
21630;SDS011;10977;46.802;11.952;2022-11-12T02:26:52;52.53;;;7.55;;
21630;SDS011;10977;46.802;11.952;2022-11-12T02:29:19;79.80;;;6.75;;
21630;SDS011;10977;46.802;11.952;2022-11-12T02:31:45;73.55;;;6.90;;
21630;SDS011;10977;46.802;11.952;2022-11-12T02:34:10;134.27;;;7.72;;
21630;SDS011;10977;46.802;11.952;2022-11-12T02:36:35;76.32;;;7.85;;
21630;SDS011;10977;46.802;11.952;2022-11-12T02:39:01;36.22;;;7.72;;
21630;SDS011;10977;46.802;11.952;2022-11-12T02:41:26;13.55;;;7.20;;
21630;SDS011;10977;46.802;11.952;2022-11-12T02:43:52;21.58;;;8.13;;
21630;SDS011;10977;46.802;11.952;2022-11-12T02:46:18;15.52;;;7.40;;
21630;SDS011;10977;46.802;11.952;2022-11-12T02:48:43;20.75;;;7.63;;
21630;SDS011;10977;46.802;11.952;2022-11-12T02:51:09;60.17;;;9.18;;
21630;SDS011;10977;46.802;11.952;2022-11-12T02:53:34;15.65;;;7.93;;
21630;SDS011;10977;46.802;11.952;2022-11-12T02:56:00;24.65;;;7.30;;
21630;SDS011;10977;46.802;11.952;2022-11-12T02:58:25;18.48;;;8.27;;
21630;SDS011;10977;46.802;11.952;2022-11-12T03:00:51;29.77;;;7.68;;
21630;SDS011;10977;46.802;11.952;2022-11-12T03:03:17;13.50;;;6.78;;
21630;SDS011;10977;46.802;11.952;2022-11-12T03:05:42;53.38;;;7.43;;
21630;SDS011;10977;46.802;11.952;2022-11-12T03:08:09;31.25;;;6.57;;
21630;SDS011;10977;46.802;11.952;2022-11-12T03:10:38;8.73;;;6.55;;
21630;SDS011;10977;46.802;11.952;2022-11-12T03:13:04;10.52;;;6.88;;
21630;SDS011;10977;46.802;11.952;2022-11-12T03:15:30;8.80;;;6.82;;
21630;SDS011;10977;46.802;11.952;2022-11-12T03:17:56;7.30;;;6.03;;
21630;SDS011;10977;46.802;11.952;2022-11-12T03:20:22;6.20;;;5.60;;
21630;SDS011;10977;46.802;11.952;2022-11-12T03:22:59;9.18;;;5.80;;
21630;SDS011;10977;46.802;11.952;2022-11-12T03:25:29;7.45;;;5.93;;
21630;SDS011;10977;46.802;11.952;2022-11-12T03:30:31;8.27;;;6.38;;
21630;SDS011;10977;46.802;11.952;2022-11-12T03:32:58;7.78;;;6.15;;
21630;SDS011;10977;46.802;11.952;2022-11-12T03:35:24;8.75;;;5.55;;
21630;SDS011;10977;46.802;11.952;2022-11-12T03:37:51;6.97;;;5.82;;
21630;SDS011;10977;46.802;11.952;2022-11-12T03:40:17;8.63;;;5.68;;
21630;SDS011;10977;46.802;11.952;2022-11-12T03:42:46;9.73;;;5.95;;
21630;SDS011;10977;46.802;11.952;2022-11-12T03:45:12;6.38;;;5.47;;
21630;SDS011;10977;46.802;11.952;2022-11-12T03:47:42;7.40;;;5.70;;
21630;SDS011;10977;46.802;11.952;2022-11-12T03:50:09;11.00;;;6.35;;
21630;SDS011;10977;46.802;11.952;2022-11-12T03:52:35;9.10;;;6.78;;
21630;SDS011;10977;46.802;11.952;2022-11-12T03:55:01;16.27;;;8.65;;
21630;SDS011;10977;46.802;11.952;2022-11-12T03:57:26;15.98;;;8.60;;
21630;SDS011;10977;46.802;11.952;2022-11-12T03:59:51;12.82;;;7.97;;
21630;SDS011;10977;46.802;11.952;2022-11-12T04:02:17;8.73;;;6.50;;
21630;SDS011;10977;46.802;11.952;2022-11-12T04:04:42;7.60;;;6.07;;
21630;SDS011;10977;46.802;11.952;2022-11-12T04:07:26;8.55;;;6.43;;
21630;SDS011;10977;46.802;11.952;2022-11-12T04:10:10;9.75;;;6.95;;
21630;SDS011;10977;46.802;11.952;2022-11-12T04:12:35;12.25;;;7.90;;
21630;SDS011;10977;46.802;11.952;2022-11-12T04:15:19;36.80;;;7.93;;
21630;SDS011;10977;46.802;11.952;2022-11-12T04:17:44;15.38;;;7.88;;
21630;SDS011;10977;46.802;11.952;2022-11-12T04:20:28;24.50;;;7.22;;
21630;SDS011;10977;46.802;11.952;2022-11-12T04:23:12;39.08;;;7.50;;
21630;SDS011;10977;46.802;11.952;2022-11-12T04:25:38;11.80;;;7.15;;
21630;SDS011;10977;46.802;11.952;2022-11-12T04:28:22;11.75;;;8.43;;
21630;SDS011;10977;46.802;11.952;2022-11-12T04:30:48;63.00;;;14.82;;
21630;SDS011;10977;46.802;11.952;2022-11-12T04:33:13;22.95;;;8.68;;
21630;SDS011;10977;46.802;11.952;2022-11-12T04:35:38;27.75;;;7.13;;
21630;SDS011;10977;46.802;11.952;2022-11-12T04:38:04;16.50;;;6.22;;
21630;SDS011;10977;46.802;11.952;2022-11-12T04:40:29;26.98;;;7.20;;
21630;SDS011;10977;46.802;11.952;2022-11-12T04:43:15;107.72;;;8.40;;
21630;SDS011;10977;46.802;11.952;2022-11-12T04:46:01;29.55;;;6.43;;
21630;SDS011;10977;46.802;11.952;2022-11-12T04:48:28;42.17;;;7.70;;
21630;SDS011;10977;46.802;11.952;2022-11-12T04:50:58;17.75;;;6.38;;
21630;SDS011;10977;46.802;11.952;2022-11-12T04:53:25;55.65;;;6.00;;
21630;SDS011;10977;46.802;11.952;2022-11-12T04:55:52;73.03;;;6.38;;
21630;SDS011;10977;46.802;11.952;2022-11-12T04:58:19;54.70;;;5.55;;
21630;SDS011;10977;46.802;11.952;2022-11-12T05:00:46;44.55;;;5.38;;
21630;SDS011;10977;46.802;11.952;2022-11-12T05:03:11;201.15;;;9.45;;
21630;SDS011;10977;46.802;11.952;2022-11-12T05:05:37;48.97;;;5.00;;
21630;SDS011;10977;46.802;11.952;2022-11-12T05:08:02;107.35;;;6.68;;
21630;SDS011;10977;46.802;11.952;2022-11-12T05:10:28;279.13;;;8.93;;
21630;SDS011;10977;46.802;11.952;2022-11-12T05:12:54;131.15;;;6.97;;
21630;SDS011;10977;46.802;11.952;2022-11-12T05:15:19;47.90;;;6.28;;
21630;SDS011;10977;46.802;11.952;2022-11-12T05:17:45;26.15;;;5.00;;
21630;SDS011;10977;46.802;11.952;2022-11-12T05:20:11;96.53;;;6.47;;
21630;SDS011;10977;46.802;11.952;2022-11-12T05:22:37;291.20;;;8.75;;
21630;SDS011;10977;46.802;11.952;2022-11-12T05:25:03;6.00;;;4.40;;
21630;SDS011;10977;46.802;11.952;2022-11-12T05:27:29;22.00;;;5.13;;
21630;SDS011;10977;46.802;11.952;2022-11-12T05:29:54;16.73;;;4.68;;
21630;SDS011;10977;46.802;11.952;2022-11-12T05:32:20;15.77;;;4.53;;
21630;SDS011;10977;46.802;11.952;2022-11-12T05:34:45;5.68;;;4.22;;
21630;SDS011;10977;46.802;11.952;2022-11-12T05:37:11;21.08;;;4.78;;
21630;SDS011;10977;46.802;11.952;2022-11-12T05:39:37;17.20;;;5.40;;
21630;SDS011;10977;46.802;11.952;2022-11-12T05:42:03;6.90;;;4.78;;
21630;SDS011;10977;46.802;11.952;2022-11-12T05:44:29;105.13;;;6.10;;
21630;SDS011;10977;46.802;11.952;2022-11-12T05:46:54;7.55;;;4.85;;
21630;SDS011;10977;46.802;11.952;2022-11-12T05:49:20;5.93;;;4.50;;
21630;SDS011;10977;46.802;11.952;2022-11-12T05:51:45;8.48;;;5.13;;
21630;SDS011;10977;46.802;11.952;2022-11-12T05:54:11;5.20;;;4.68;;
21630;SDS011;10977;46.802;11.952;2022-11-12T05:56:37;72.03;;;5.60;;
21630;SDS011;10977;46.802;11.952;2022-11-12T05:59:04;166.05;;;7.70;;
21630;SDS011;10977;46.802;11.952;2022-11-12T06:01:31;17.67;;;5.60;;
21630;SDS011;10977;46.802;11.952;2022-11-12T06:03:57;53.38;;;7.40;;
21630;SDS011;10977;46.802;11.952;2022-11-12T06:06:22;20.50;;;6.32;;
21630;SDS011;10977;46.802;11.952;2022-11-12T06:08:48;95.15;;;6.55;;
21630;SDS011;10977;46.802;11.952;2022-11-12T06:11:14;168.73;;;8.48;;
21630;SDS011;10977;46.802;11.952;2022-11-12T06:13:39;256.25;;;9.45;;
21630;SDS011;10977;46.802;11.952;2022-11-12T06:16:05;14.57;;;6.07;;
21630;SDS011;10977;46.802;11.952;2022-11-12T06:18:31;20.00;;;7.00;;
21630;SDS011;10977;46.802;11.952;2022-11-12T06:21:03;132.60;;;8.80;;
21630;SDS011;10977;46.802;11.952;2022-11-12T06:23:52;12.35;;;6.72;;
21630;SDS011;10977;46.802;11.952;2022-11-12T06:26:20;11.65;;;7.78;;
21630;SDS011;10977;46.802;11.952;2022-11-12T06:28:46;18.85;;;7.10;;
21630;SDS011;10977;46.802;11.952;2022-11-12T06:31:12;45.10;;;8.75;;
21630;SDS011;10977;46.802;11.952;2022-11-12T06:33:38;109.70;;;8.45;;
21630;SDS011;10977;46.802;11.952;2022-11-12T06:36:04;134.15;;;7.72;;
21630;SDS011;10977;46.802;11.952;2022-11-12T06:38:34;87.78;;;8.32;;
21630;SDS011;10977;46.802;11.952;2022-11-12T06:41:01;41.83;;;7.75;;
21630;SDS011;10977;46.802;11.952;2022-11-12T06:43:28;10.15;;;7.15;;
21630;SDS011;10977;46.802;11.952;2022-11-12T06:45:58;64.43;;;7.50;;
21630;SDS011;10977;46.802;11.952;2022-11-12T06:48:28;40.78;;;7.63;;
21630;SDS011;10977;46.802;11.952;2022-11-12T06:50:54;79.72;;;8.65;;
21630;SDS011;10977;46.802;11.952;2022-11-12T06:53:21;21.75;;;7.63;;
21630;SDS011;10977;46.802;11.952;2022-11-12T06:55:46;14.20;;;5.82;;
21630;SDS011;10977;46.802;11.952;2022-11-12T06:58:12;24.27;;;9.63;;
21630;SDS011;10977;46.802;11.952;2022-11-12T07:00:37;24.35;;;13.98;;
21630;SDS011;10977;46.802;11.952;2022-11-12T07:03:06;13.35;;;7.72;;
21630;SDS011;10977;46.802;11.952;2022-11-12T07:05:34;11.63;;;6.95;;
21630;SDS011;10977;46.802;11.952;2022-11-12T07:08:01;13.48;;;6.35;;
21630;SDS011;10977;46.802;11.952;2022-11-12T07:10:26;18.48;;;6.95;;
21630;SDS011;10977;46.802;11.952;2022-11-12T07:12:52;38.28;;;8.65;;
21630;SDS011;10977;46.802;11.952;2022-11-12T07:15:18;12.23;;;8.27;;
21630;SDS011;10977;46.802;11.952;2022-11-12T07:17:44;14.55;;;10.00;;
21630;SDS011;10977;46.802;11.952;2022-11-12T07:20:10;12.35;;;9.35;;
21630;SDS011;10977;46.802;11.952;2022-11-12T07:22:36;25.77;;;9.48;;
21630;SDS011;10977;46.802;11.952;2022-11-12T07:25:01;25.27;;;10.13;;
21630;SDS011;10977;46.802;11.952;2022-11-12T07:27:30;22.23;;;11.43;;
21630;SDS011;10977;46.802;11.952;2022-11-12T07:29:55;21.05;;;13.98;;
21630;SDS011;10977;46.802;11.952;2022-11-12T07:32:21;19.75;;;13.32;;
21630;SDS011;10977;46.802;11.952;2022-11-12T07:34:46;26.02;;;13.55;;
21630;SDS011;10977;46.802;11.952;2022-11-12T07:37:11;18.48;;;13.25;;
21630;SDS011;10977;46.802;11.952;2022-11-12T07:39:37;20.42;;;13.73;;
21630;SDS011;10977;46.802;11.952;2022-11-12T07:42:02;19.27;;;13.15;;
21630;SDS011;10977;46.802;11.952;2022-11-12T07:44:28;18.77;;;12.48;;
21630;SDS011;10977;46.802;11.952;2022-11-12T07:46:53;18.67;;;13.07;;
21630;SDS011;10977;46.802;11.952;2022-11-12T07:49:19;22.50;;;14.32;;
21630;SDS011;10977;46.802;11.952;2022-11-12T07:51:44;23.65;;;14.73;;
21630;SDS011;10977;46.802;11.952;2022-11-12T07:54:09;17.10;;;13.13;;
21630;SDS011;10977;46.802;11.952;2022-11-12T07:56:35;15.43;;;10.45;;
21630;SDS011;10977;46.802;11.952;2022-11-12T07:59:00;13.30;;;10.00;;
21630;SDS011;10977;46.802;11.952;2022-11-12T08:01:29;12.45;;;9.50;;
21630;SDS011;10977;46.802;11.952;2022-11-12T08:03:57;11.77;;;9.13;;
21630;SDS011;10977;46.802;11.952;2022-11-12T08:06:23;12.63;;;8.95;;
21630;SDS011;10977;46.802;11.952;2022-11-12T08:08:52;14.77;;;11.45;;
21630;SDS011;10977;46.802;11.952;2022-11-12T08:11:18;16.08;;;11.27;;
21630;SDS011;10977;46.802;11.952;2022-11-12T08:13:44;14.48;;;10.90;;
21630;SDS011;10977;46.802;11.952;2022-11-12T08:16:09;12.23;;;8.88;;
21630;SDS011;10977;46.802;11.952;2022-11-12T08:18:35;23.23;;;9.23;;
21630;SDS011;10977;46.802;11.952;2022-11-12T08:21:01;11.40;;;8.93;;
21630;SDS011;10977;46.802;11.952;2022-11-12T08:23:28;11.80;;;8.75;;
21630;SDS011;10977;46.802;11.952;2022-11-12T08:26:01;11.00;;;8.13;;
21630;SDS011;10977;46.802;11.952;2022-11-12T08:28:28;14.00;;;8.10;;
21630;SDS011;10977;46.802;11.952;2022-11-12T08:30:54;8.88;;;7.50;;
21630;SDS011;10977;46.802;11.952;2022-11-12T08:33:20;9.73;;;8.50;;
21630;SDS011;10977;46.802;11.952;2022-11-12T08:35:46;11.50;;;8.43;;
21630;SDS011;10977;46.802;11.952;2022-11-12T08:38:11;9.95;;;8.15;;
21630;SDS011;10977;46.802;11.952;2022-11-12T08:40:38;11.68;;;9.38;;
21630;SDS011;10977;46.802;11.952;2022-11-12T08:43:08;10.65;;;8.93;;
21630;SDS011;10977;46.802;11.952;2022-11-12T08:45:35;11.88;;;9.45;;
21630;SDS011;10977;46.802;11.952;2022-11-12T08:48:03;11.57;;;9.05;;
21630;SDS011;10977;46.802;11.952;2022-11-12T08:50:30;12.63;;;9.93;;
21630;SDS011;10977;46.802;11.952;2022-11-12T08:53:02;12.27;;;10.00;;
21630;SDS011;10977;46.802;11.952;2022-11-12T08:55:30;14.15;;;10.23;;
21630;SDS011;10977;46.802;11.952;2022-11-12T08:57:57;11.23;;;9.40;;
21630;SDS011;10977;46.802;11.952;2022-11-12T09:00:29;10.90;;;8.77;;
21630;SDS011;10977;46.802;11.952;2022-11-12T09:02:59;9.73;;;8.15;;
21630;SDS011;10977;46.802;11.952;2022-11-12T09:05:29;10.18;;;8.65;;
21630;SDS011;10977;46.802;11.952;2022-11-12T09:07:58;9.77;;;7.95;;
21630;SDS011;10977;46.802;11.952;2022-11-12T09:10:24;10.57;;;7.72;;
21630;SDS011;10977;46.802;11.952;2022-11-12T09:12:50;8.57;;;7.32;;
21630;SDS011;10977;46.802;11.952;2022-11-12T09:15:16;8.70;;;7.00;;
21630;SDS011;10977;46.802;11.952;2022-11-12T09:17:42;7.93;;;6.68;;
21630;SDS011;10977;46.802;11.952;2022-11-12T09:20:07;10.18;;;7.30;;
21630;SDS011;10977;46.802;11.952;2022-11-12T09:22:33;8.10;;;6.60;;
21630;SDS011;10977;46.802;11.952;2022-11-12T09:24:58;8.32;;;6.50;;
21630;SDS011;10977;46.802;11.952;2022-11-12T09:27:27;7.38;;;5.93;;
21630;SDS011;10977;46.802;11.952;2022-11-12T09:29:52;11.05;;;7.05;;
21630;SDS011;10977;46.802;11.952;2022-11-12T09:32:18;9.27;;;6.70;;
21630;SDS011;10977;46.802;11.952;2022-11-12T09:34:43;6.13;;;5.45;;
21630;SDS011;10977;46.802;11.952;2022-11-12T09:37:08;6.80;;;5.47;;
21630;SDS011;10977;46.802;11.952;2022-11-12T09:39:34;5.70;;;5.05;;
21630;SDS011;10977;46.802;11.952;2022-11-12T09:41:59;5.25;;;4.25;;
21630;SDS011;10977;46.802;11.952;2022-11-12T09:44:31;4.40;;;3.60;;
21630;SDS011;10977;46.802;11.952;2022-11-12T09:47:02;3.22;;;2.92;;
21630;SDS011;10977;46.802;11.952;2022-11-12T09:49:35;3.90;;;3.10;;
21630;SDS011;10977;46.802;11.952;2022-11-12T09:52:13;5.40;;;2.83;;
21630;SDS011;10977;46.802;11.952;2022-11-12T09:54:43;3.42;;;2.28;;
21630;SDS011;10977;46.802;11.952;2022-11-12T09:57:12;3.33;;;2.72;;
21630;SDS011;10977;46.802;11.952;2022-11-12T09:59:38;3.67;;;3.08;;
21630;SDS011;10977;46.802;11.952;2022-11-12T10:11:12;4.82;;;3.92;;
21630;SDS011;10977;46.802;11.952;2022-11-12T10:24:56;5.28;;;4.32;;
21630;SDS011;10977;46.802;11.952;2022-11-12T10:27:35;5.90;;;4.60;;
21630;SDS011;10977;46.802;11.952;2022-11-12T10:30:05;4.85;;;4.35;;
21630;SDS011;10977;46.802;11.952;2022-11-12T10:32:37;5.22;;;4.20;;
21630;SDS011;10977;46.802;11.952;2022-11-12T10:35:07;5.10;;;3.80;;
21630;SDS011;10977;46.802;11.952;2022-11-12T10:42:59;5.18;;;4.55;;
21630;SDS011;10977;46.802;11.952;2022-11-12T10:45:30;4.80;;;4.13;;
21630;SDS011;10977;46.802;11.952;2022-11-12T10:47:56;5.07;;;4.10;;
21630;SDS011;10977;46.802;11.952;2022-11-12T10:50:35;5.38;;;4.15;;
21630;SDS011;10977;46.802;11.952;2022-11-12T10:53:06;3.97;;;3.58;;
21630;SDS011;10977;46.802;11.952;2022-11-12T10:55:35;5.50;;;3.90;;
21630;SDS011;10977;46.802;11.952;2022-11-12T11:00:28;3.20;;;2.80;;
21630;SDS011;10977;46.802;11.952;2022-11-12T11:02:54;3.00;;;2.42;;
21630;SDS011;10977;46.802;11.952;2022-11-12T11:05:31;3.22;;;2.28;;
21630;SDS011;10977;46.802;11.952;2022-11-12T11:08:01;3.03;;;2.72;;
21630;SDS011;10977;46.802;11.952;2022-11-12T11:10:31;3.22;;;2.58;;
21630;SDS011;10977;46.802;11.952;2022-11-12T11:13:09;3.22;;;2.80;;
21630;SDS011;10977;46.802;11.952;2022-11-12T11:18:30;5.07;;;3.97;;
21630;SDS011;10977;46.802;11.952;2022-11-12T11:23:56;5.97;;;4.90;;
21630;SDS011;10977;46.802;11.952;2022-11-12T11:26:53;10.13;;;5.65;;
21630;SDS011;10977;46.802;11.952;2022-11-12T11:37:46;4.78;;;4.10;;
21630;SDS011;10977;46.802;11.952;2022-11-12T11:40:28;7.03;;;4.57;;
21630;SDS011;10977;46.802;11.952;2022-11-12T11:45:28;5.15;;;4.28;;
21630;SDS011;10977;46.802;11.952;2022-11-12T11:50:44;6.40;;;4.60;;
21630;SDS011;10977;46.802;11.952;2022-11-12T11:53:37;4.40;;;3.85;;
21630;SDS011;10977;46.802;11.952;2022-11-12T12:06:43;4.93;;;4.38;;
21630;SDS011;10977;46.802;11.952;2022-11-12T12:22:02;7.40;;;5.90;;
21630;SDS011;10977;46.802;11.952;2022-11-12T12:24:55;5.35;;;4.63;;
21630;SDS011;10977;46.802;11.952;2022-11-12T12:27:33;5.18;;;4.40;;
21630;SDS011;10977;46.802;11.952;2022-11-12T12:30:03;6.00;;;4.57;;
21630;SDS011;10977;46.802;11.952;2022-11-12T12:32:52;6.65;;;5.30;;
21630;SDS011;10977;46.802;11.952;2022-11-12T12:35:32;5.60;;;4.75;;
21630;SDS011;10977;46.802;11.952;2022-11-12T12:41:17;6.35;;;5.47;;
21630;SDS011;10977;46.802;11.952;2022-11-12T12:43:53;7.78;;;5.85;;
21630;SDS011;10977;46.802;11.952;2022-11-12T12:46:24;6.15;;;5.40;;
21630;SDS011;10977;46.802;11.952;2022-11-12T12:48:52;6.47;;;5.55;;
21630;SDS011;10977;46.802;11.952;2022-11-12T12:51:19;7.35;;;4.93;;
21630;SDS011;10977;46.802;11.952;2022-11-12T12:53:46;6.07;;;5.22;;
21630;SDS011;10977;46.802;11.952;2022-11-12T12:58:41;6.10;;;5.20;;
21630;SDS011;10977;46.802;11.952;2022-11-12T13:01:25;6.05;;;4.95;;
21630;SDS011;10977;46.802;11.952;2022-11-12T13:04:05;5.97;;;4.78;;
21630;SDS011;10977;46.802;11.952;2022-11-12T13:48:44;6.97;;;5.07;;
21630;SDS011;10977;46.802;11.952;2022-11-12T13:51:27;4.97;;;4.47;;
21630;SDS011;10977;46.802;11.952;2022-11-12T13:53:59;5.82;;;5.05;;
21630;SDS011;10977;46.802;11.952;2022-11-12T13:56:29;7.32;;;5.60;;
21630;SDS011;10977;46.802;11.952;2022-11-12T14:01:42;8.35;;;6.95;;
21630;SDS011;10977;46.802;11.952;2022-11-12T14:04:15;9.95;;;8.27;;
21630;SDS011;10977;46.802;11.952;2022-11-12T14:06:43;9.57;;;8.30;;
21630;SDS011;10977;46.802;11.952;2022-11-12T14:09:34;13.07;;;11.10;;
21630;SDS011;10977;46.802;11.952;2022-11-12T14:15:02;11.38;;;8.98;;
21630;SDS011;10977;46.802;11.952;2022-11-12T14:17:48;15.93;;;9.63;;
21630;SDS011;10977;46.802;11.952;2022-11-12T14:20:22;10.98;;;8.93;;
21630;SDS011;10977;46.802;11.952;2022-11-12T14:22:51;10.63;;;8.75;;
21630;SDS011;10977;46.802;11.952;2022-11-12T14:27:46;15.75;;;9.55;;
21630;SDS011;10977;46.802;11.952;2022-11-12T14:30:31;15.68;;;9.63;;
21630;SDS011;10977;46.802;11.952;2022-11-12T14:32:57;17.52;;;9.75;;
21630;SDS011;10977;46.802;11.952;2022-11-12T14:35:32;29.17;;;11.65;;
21630;SDS011;10977;46.802;11.952;2022-11-12T14:40:45;16.10;;;10.02;;
21630;SDS011;10977;46.802;11.952;2022-11-12T14:43:17;19.52;;;10.00;;
21630;SDS011;10977;46.802;11.952;2022-11-12T14:45:47;23.08;;;10.27;;
21630;SDS011;10977;46.802;11.952;2022-11-12T14:48:14;21.88;;;11.32;;
21630;SDS011;10977;46.802;11.952;2022-11-12T14:50:41;16.63;;;10.38;;
21630;SDS011;10977;46.802;11.952;2022-11-12T14:55:55;13.55;;;9.43;;
21630;SDS011;10977;46.802;11.952;2022-11-12T14:58:22;13.77;;;9.82;;
21630;SDS011;10977;46.802;11.952;2022-11-12T15:00:52;14.40;;;9.48;;
21630;SDS011;10977;46.802;11.952;2022-11-12T15:03:23;12.70;;;9.57;;
21630;SDS011;10977;46.802;11.952;2022-11-12T15:08:30;17.15;;;10.48;;
21630;SDS011;10977;46.802;11.952;2022-11-12T15:11:13;15.90;;;9.95;;
21630;SDS011;10977;46.802;11.952;2022-11-12T15:13:48;18.38;;;14.55;;
21630;SDS011;10977;46.802;11.952;2022-11-12T15:16:20;21.80;;;15.05;;
21630;SDS011;10977;46.802;11.952;2022-11-12T15:21:52;13.98;;;10.88;;
21630;SDS011;10977;46.802;11.952;2022-11-12T15:26:51;12.85;;;9.50;;
21630;SDS011;10977;46.802;11.952;2022-11-12T15:29:29;10.52;;;9.13;;
21630;SDS011;10977;46.802;11.952;2022-11-12T15:32:03;13.25;;;9.10;;
21630;SDS011;10977;46.802;11.952;2022-11-12T15:34:48;11.77;;;8.38;;
21630;SDS011;10977;46.802;11.952;2022-11-12T15:39:49;10.30;;;8.15;;
21630;SDS011;10977;46.802;11.952;2022-11-12T15:42:37;11.57;;;8.90;;
21630;SDS011;10977;46.802;11.952;2022-11-12T15:45:14;28.77;;;21.60;;
21630;SDS011;10977;46.802;11.952;2022-11-12T15:47:42;45.40;;;26.70;;
21630;SDS011;10977;46.802;11.952;2022-11-12T15:50:13;29.25;;;16.65;;
21630;SDS011;10977;46.802;11.952;2022-11-12T15:52:43;31.17;;;19.60;;
21630;SDS011;10977;46.802;11.952;2022-11-12T15:55:12;38.03;;;28.83;;
21630;SDS011;10977;46.802;11.952;2022-11-12T15:57:42;41.90;;;29.40;;
21630;SDS011;10977;46.802;11.952;2022-11-12T16:00:14;45.30;;;29.85;;
21630;SDS011;10977;46.802;11.952;2022-11-12T16:02:42;47.97;;;27.95;;
21630;SDS011;10977;46.802;11.952;2022-11-12T16:05:15;33.42;;;22.65;;
21630;SDS011;10977;46.802;11.952;2022-11-12T16:07:41;22.25;;;16.20;;
21630;SDS011;10977;46.802;11.952;2022-11-12T16:10:11;19.25;;;14.45;;
21630;SDS011;10977;46.802;11.952;2022-11-12T16:12:37;21.20;;;14.07;;
21630;SDS011;10977;46.802;11.952;2022-11-12T16:15:02;20.02;;;16.02;;
21630;SDS011;10977;46.802;11.952;2022-11-12T16:17:30;18.40;;;14.93;;
21630;SDS011;10977;46.802;11.952;2022-11-12T16:19:55;17.10;;;13.20;;
21630;SDS011;10977;46.802;11.952;2022-11-12T16:22:20;20.30;;;12.85;;
21630;SDS011;10977;46.802;11.952;2022-11-12T16:24:46;27.98;;;22.63;;
21630;SDS011;10977;46.802;11.952;2022-11-12T16:27:14;30.05;;;21.58;;
21630;SDS011;10977;46.802;11.952;2022-11-12T16:29:40;29.38;;;20.92;;
21630;SDS011;10977;46.802;11.952;2022-11-12T16:32:05;29.05;;;22.75;;
21630;SDS011;10977;46.802;11.952;2022-11-12T16:34:31;27.65;;;20.55;;
21630;SDS011;10977;46.802;11.952;2022-11-12T16:36:56;31.63;;;21.05;;
21630;SDS011;10977;46.802;11.952;2022-11-12T16:39:22;32.35;;;24.88;;
21630;SDS011;10977;46.802;11.952;2022-11-12T16:41:48;31.50;;;24.33;;
21630;SDS011;10977;46.802;11.952;2022-11-12T16:44:14;35.88;;;23.77;;
21630;SDS011;10977;46.802;11.952;2022-11-12T16:46:39;32.25;;;22.70;;
21630;SDS011;10977;46.802;11.952;2022-11-12T16:49:12;34.83;;;25.90;;
21630;SDS011;10977;46.802;11.952;2022-11-12T16:51:39;38.65;;;26.13;;
21630;SDS011;10977;46.802;11.952;2022-11-12T16:54:04;33.55;;;27.35;;
21630;SDS011;10977;46.802;11.952;2022-11-12T16:56:30;24.50;;;20.40;;
21630;SDS011;10977;46.802;11.952;2022-11-12T16:58:55;20.52;;;18.33;;
21630;SDS011;10977;46.802;11.952;2022-11-12T17:01:25;21.08;;;16.70;;
21630;SDS011;10977;46.802;11.952;2022-11-12T17:03:54;19.42;;;16.80;;